createdAt,value
2023-04-04T00:00:09.370Z,0.00
2023-04-04T00:01:09.342Z,0.00
2023-04-04T00:02:09.334Z,0.00
2023-04-04T00:03:09.635Z,0.00
2023-04-04T00:04:09.438Z,0.00
2023-04-04T00:05:09.372Z,0.00
2023-04-04T00:06:09.335Z,0.00
2023-04-04T00:07:09.330Z,0.00
2023-04-04T00:08:09.285Z,0.00
2023-04-04T00:09:09.349Z,0.00
2023-04-04T00:10:09.284Z,0.00
2023-04-04T00:11:09.298Z,0.00
2023-04-04T00:12:09.331Z,0.00
2023-04-04T00:13:09.247Z,0.00
2023-04-04T00:14:09.282Z,0.00
2023-04-04T00:15:09.263Z,0.00
2023-04-04T00:16:14.259Z,0.00
2023-04-04T00:17:09.281Z,0.00
2023-04-04T00:18:09.253Z,0.00
2023-04-04T00:19:09.204Z,0.00
2023-04-04T00:20:09.304Z,0.00
2023-04-04T00:21:09.164Z,0.00
2023-04-04T00:22:09.168Z,0.00
2023-04-04T00:23:09.130Z,0.00
2023-04-04T00:24:09.153Z,0.00
2023-04-04T00:25:09.119Z,0.00
2023-04-04T00:26:09.113Z,0.00
2023-04-04T00:27:09.122Z,0.00
2023-04-04T00:28:09.188Z,0.00
2023-04-04T00:29:09.151Z,0.00
2023-04-04T00:30:09.072Z,0.00
2023-04-04T00:31:09.116Z,0.00
2023-04-04T00:32:09.092Z,0.00
2023-04-04T00:33:09.192Z,0.00
2023-04-04T00:34:09.109Z,0.00
2023-04-04T00:35:09.040Z,0.00
2023-04-04T00:36:09.058Z,0.00
2023-04-04T00:37:09.046Z,0.00
2023-04-04T00:38:08.990Z,0.00
2023-04-04T00:39:08.969Z,0.00
2023-04-04T00:40:09.066Z,0.00
2023-04-04T00:41:08.962Z,0.00
2023-04-04T00:42:08.935Z,0.00
2023-04-04T00:43:08.971Z,0.00
2023-04-04T00:44:08.944Z,0.00
2023-04-04T00:45:09.007Z,0.00
2023-04-04T00:46:08.992Z,0.00
2023-04-04T00:47:08.876Z,0.00
2023-04-04T00:48:09.005Z,0.00
2023-04-04T00:49:08.877Z,0.00
2023-04-04T00:50:08.882Z,0.00
2023-04-04T00:51:08.902Z,0.00
2023-04-04T00:52:08.885Z,0.00
2023-04-04T00:53:08.908Z,0.00
2023-04-04T00:54:08.831Z,0.00
2023-04-04T00:55:08.811Z,0.00
2023-04-04T00:56:08.845Z,0.00
2023-04-04T00:57:08.852Z,0.00
2023-04-04T00:58:08.782Z,0.00
2023-04-04T00:59:08.794Z,0.00
2023-04-04T01:00:08.786Z,0.00
2023-04-04T01:01:08.793Z,0.00
2023-04-04T01:02:08.796Z,0.00
2023-04-04T01:03:08.894Z,0.00
2023-04-04T01:04:08.782Z,0.00
2023-04-04T01:05:08.882Z,0.00
2023-04-04T01:06:08.753Z,0.00
2023-04-04T01:07:08.691Z,0.00
2023-04-04T01:08:08.793Z,0.00
2023-04-04T01:09:08.687Z,0.00
2023-04-04T01:10:08.699Z,0.00
2023-04-04T01:11:08.724Z,0.00
2023-04-04T01:12:08.671Z,0.00
2023-04-04T01:13:08.640Z,0.00
2023-04-04T01:14:08.616Z,0.00
2023-04-04T01:15:08.678Z,0.00
2023-04-04T01:16:08.670Z,0.00
2023-04-04T01:17:08.632Z,0.00
2023-04-04T01:18:08.682Z,0.00
2023-04-04T01:19:08.582Z,0.00
2023-04-04T01:20:08.699Z,0.00
2023-04-04T01:21:08.542Z,0.00
2023-04-04T01:22:08.544Z,0.00
2023-04-04T01:23:08.530Z,0.00
2023-04-04T01:24:08.541Z,0.00
2023-04-04T01:25:08.563Z,0.00
2023-04-04T01:26:08.498Z,0.00
2023-04-04T01:27:08.493Z,0.00
2023-04-04T01:28:08.499Z,0.00
2023-04-04T01:29:08.466Z,0.00
2023-04-04T01:30:08.470Z,0.00
2023-04-04T01:31:08.492Z,0.00
2023-04-04T01:32:08.504Z,0.00
2023-04-04T01:33:08.484Z,0.00
2023-04-04T01:34:08.426Z,0.00
2023-04-04T01:35:08.438Z,0.00
2023-04-04T01:36:08.485Z,0.00
2023-04-04T01:37:08.382Z,0.00
2023-04-04T01:38:08.415Z,0.00
2023-04-04T01:39:08.369Z,0.00
2023-04-04T01:40:08.344Z,0.00
2023-04-04T01:41:08.399Z,0.00
2023-04-04T01:42:08.345Z,0.00
2023-04-04T01:43:08.334Z,0.00
2023-04-04T01:44:08.332Z,0.00
2023-04-04T01:45:08.374Z,0.00
2023-04-04T01:46:08.713Z,0.00
2023-04-04T01:47:08.360Z,0.00
2023-04-04T01:48:08.298Z,0.00
2023-04-04T01:49:09.041Z,0.00
2023-04-04T01:50:08.267Z,0.00
2023-04-04T01:51:08.272Z,0.00
2023-04-04T01:52:08.281Z,0.00
2023-04-04T01:53:08.229Z,0.00
2023-04-04T01:54:08.254Z,0.00
2023-04-04T01:55:08.216Z,0.00
2023-04-04T01:56:08.195Z,0.00
2023-04-04T01:57:08.204Z,0.00
2023-04-04T01:58:08.189Z,0.00
2023-04-04T01:59:08.205Z,0.00
2023-04-04T02:00:08.160Z,0.00
2023-04-04T02:01:08.248Z,0.00
2023-04-04T02:02:08.136Z,0.00
2023-04-04T02:03:08.138Z,0.00
2023-04-04T02:04:08.201Z,0.00
2023-04-04T02:05:08.114Z,0.00
2023-04-04T02:06:08.134Z,0.00
2023-04-04T02:07:08.207Z,0.00
2023-04-04T02:08:08.107Z,0.00
2023-04-04T02:09:08.216Z,0.00
2023-04-04T02:10:08.137Z,0.00
2023-04-04T02:11:08.046Z,0.00
2023-04-04T02:12:08.058Z,0.00
2023-04-04T02:13:08.057Z,0.00
2023-04-04T02:14:08.037Z,0.00
2023-04-04T02:15:08.038Z,0.00
2023-04-04T02:16:08.153Z,0.00
2023-04-04T02:17:08.054Z,0.00
2023-04-04T02:18:08.033Z,0.00
2023-04-04T02:19:07.981Z,0.00
2023-04-04T02:20:08.052Z,0.00
2023-04-04T02:21:07.957Z,0.00
2023-04-04T02:22:08.080Z,0.00
2023-04-04T02:23:08.011Z,0.00
2023-04-04T02:24:07.920Z,0.00
2023-04-04T02:25:07.947Z,0.00
2023-04-04T02:26:07.903Z,0.00
2023-04-04T02:27:07.914Z,0.00
2023-04-04T02:28:07.881Z,0.00
2023-04-04T02:29:07.926Z,0.00
2023-04-04T02:30:07.888Z,0.00
2023-04-04T02:31:07.887Z,0.00
2023-04-04T02:32:07.878Z,0.00
2023-04-04T02:33:08.004Z,0.00
2023-04-04T02:34:07.818Z,0.00
2023-04-04T02:35:07.814Z,0.00
2023-04-04T02:36:07.970Z,0.00
2023-04-04T02:37:07.805Z,0.00
2023-04-04T02:38:07.811Z,0.00
2023-04-04T02:39:07.777Z,0.00
2023-04-04T02:40:07.802Z,0.00
2023-04-04T02:41:07.785Z,0.00
2023-04-04T02:42:07.762Z,0.00
2023-04-04T02:43:07.787Z,0.00
2023-04-04T02:44:07.728Z,0.00
2023-04-04T02:45:07.760Z,0.00
2023-04-04T02:46:20.379Z,0.00
2023-04-04T02:47:08.735Z,0.00
2023-04-04T02:48:08.015Z,0.00
2023-04-04T02:49:07.822Z,0.00
2023-04-04T02:50:07.717Z,0.00
2023-04-04T02:51:07.714Z,0.00
2023-04-04T02:52:07.673Z,0.00
2023-04-04T02:53:07.749Z,0.00
2023-04-04T02:54:07.616Z,0.00
2023-04-04T02:55:07.767Z,0.00
2023-04-04T02:56:07.738Z,0.00
2023-04-04T02:57:07.606Z,0.00
2023-04-04T02:58:07.605Z,0.00
2023-04-04T02:59:07.641Z,0.00
2023-04-04T03:00:07.618Z,0.00
2023-04-04T03:01:07.651Z,0.00
2023-04-04T03:02:07.581Z,0.00
2023-04-04T03:03:07.745Z,0.00
2023-04-04T03:04:07.725Z,0.00
2023-04-04T03:05:07.567Z,0.00
2023-04-04T03:06:07.608Z,0.00
2023-04-04T03:07:07.492Z,0.00
2023-04-04T03:08:07.587Z,0.00
2023-04-04T03:09:07.500Z,0.00
2023-04-04T03:10:07.627Z,0.00
2023-04-04T03:11:07.484Z,0.00
2023-04-04T03:12:07.462Z,0.00
2023-04-04T03:13:07.583Z,0.00
2023-04-04T03:14:07.442Z,0.00
2023-04-04T03:15:07.416Z,0.00
2023-04-04T03:16:07.656Z,0.00
2023-04-04T03:17:07.423Z,0.00
2023-04-04T03:18:07.460Z,0.00
2023-04-04T03:19:07.414Z,0.00
2023-04-04T03:20:07.382Z,0.00
2023-04-04T03:21:14.925Z,0.00
2023-04-04T03:22:07.362Z,0.00
2023-04-04T03:23:07.338Z,0.00
2023-04-04T03:24:07.457Z,0.00
2023-04-04T03:25:07.324Z,0.00
2023-04-04T03:26:07.447Z,0.00
2023-04-04T03:27:07.306Z,0.00
2023-04-04T03:28:07.283Z,0.00
2023-04-04T03:29:07.276Z,0.00
2023-04-04T03:30:07.324Z,0.00
2023-04-04T03:31:07.285Z,0.00
2023-04-04T03:32:07.406Z,0.00
2023-04-04T03:33:07.314Z,0.00
2023-04-04T03:34:07.233Z,0.00
2023-04-04T03:35:07.233Z,0.00
2023-04-04T03:36:07.793Z,0.00
2023-04-04T03:37:07.225Z,0.00
2023-04-04T03:38:07.227Z,0.00
2023-04-04T03:39:07.239Z,0.00
2023-04-04T03:40:07.206Z,0.00
2023-04-04T03:41:07.167Z,0.00
2023-04-04T03:42:07.216Z,0.00
2023-04-04T03:43:07.173Z,0.00
2023-04-04T03:44:07.150Z,0.00
2023-04-04T03:45:07.135Z,0.00
2023-04-04T03:46:07.158Z,0.00
2023-04-04T03:47:07.112Z,0.00
2023-04-04T03:48:07.166Z,0.00
2023-04-04T03:49:07.078Z,0.00
2023-04-04T03:50:07.145Z,0.00
2023-04-04T03:51:07.179Z,0.00
2023-04-04T03:52:07.041Z,0.00
2023-04-04T03:53:07.080Z,0.00
2023-04-04T03:54:07.063Z,0.00
2023-04-04T03:55:07.085Z,0.00
2023-04-04T03:56:07.049Z,0.00
2023-04-04T03:57:07.178Z,0.00
2023-04-04T03:58:06.984Z,0.00
2023-04-04T03:59:07.016Z,0.00
2023-04-04T04:00:07.025Z,0.00
2023-04-04T04:01:07.007Z,0.00
2023-04-04T04:02:07.008Z,0.00
2023-04-04T04:03:07.063Z,0.00
2023-04-04T04:04:06.982Z,0.00
2023-04-04T04:05:06.909Z,0.00
2023-04-04T04:06:06.903Z,0.00
2023-04-04T04:07:06.980Z,0.00
2023-04-04T04:08:06.933Z,0.00
2023-04-04T04:09:06.953Z,0.00
2023-04-04T04:10:06.874Z,0.00
2023-04-04T04:11:06.929Z,0.00
2023-04-04T04:12:06.920Z,0.00
2023-04-04T04:13:06.936Z,0.00
2023-04-04T04:14:06.826Z,0.00
2023-04-04T04:15:06.842Z,0.00
2023-04-04T04:16:06.976Z,0.00
2023-04-04T04:17:06.864Z,0.00
2023-04-04T04:18:06.831Z,0.00
2023-04-04T04:19:06.800Z,0.00
2023-04-04T04:20:06.796Z,0.00
2023-04-04T04:21:06.776Z,0.00
2023-04-04T04:22:06.789Z,0.00
2023-04-04T04:23:06.778Z,0.00
2023-04-04T04:24:06.753Z,0.00
2023-04-04T04:25:06.739Z,0.00
2023-04-04T04:26:06.748Z,0.00
2023-04-04T04:27:06.736Z,0.00
2023-04-04T04:28:06.702Z,0.00
2023-04-04T04:29:06.723Z,0.00
2023-04-04T04:30:06.713Z,0.00
2023-04-04T04:31:06.692Z,0.00
2023-04-04T04:32:06.655Z,0.00
2023-04-04T04:33:06.756Z,0.00
2023-04-04T04:34:06.708Z,0.00
2023-04-04T04:35:06.661Z,0.00
2023-04-04T04:36:06.667Z,0.00
2023-04-04T04:37:06.613Z,0.00
2023-04-04T04:38:06.590Z,0.00
2023-04-04T04:39:06.597Z,0.00
2023-04-04T04:40:06.746Z,0.00
2023-04-04T04:41:06.570Z,0.00
2023-04-04T04:42:06.563Z,0.00
2023-04-04T04:43:06.601Z,0.00
2023-04-04T04:44:06.585Z,0.00
2023-04-04T04:45:06.528Z,5.62
2023-04-04T04:46:06.523Z,5.62
2023-04-04T04:47:06.635Z,5.62
2023-04-04T04:48:06.527Z,5.62
2023-04-04T04:49:06.562Z,5.62
2023-04-04T04:50:06.679Z,5.62
2023-04-04T04:51:06.493Z,11.25
2023-04-04T04:52:06.475Z,11.25
2023-04-04T04:53:06.449Z,11.25
2023-04-04T04:54:06.488Z,11.25
2023-04-04T04:55:06.452Z,11.25
2023-04-04T04:56:06.431Z,16.88
2023-04-04T04:57:06.483Z,16.88
2023-04-04T04:58:06.405Z,16.88
2023-04-04T04:59:06.440Z,16.88
2023-04-04T05:00:06.432Z,22.50
2023-04-04T05:01:06.413Z,22.50
2023-04-04T05:02:06.381Z,22.50
2023-04-04T05:03:07.266Z,28.12
2023-04-04T05:04:06.344Z,28.12
2023-04-04T05:05:06.383Z,28.12
2023-04-04T05:06:06.348Z,33.75
2023-04-04T05:07:06.378Z,33.75
2023-04-04T05:08:06.358Z,39.38
2023-04-04T05:09:06.387Z,39.38
2023-04-04T05:10:06.325Z,39.38
2023-04-04T05:11:06.275Z,45.00
2023-04-04T05:12:06.317Z,45.00
2023-04-04T05:13:06.273Z,45.00
2023-04-04T05:14:06.274Z,50.62
2023-04-04T05:15:06.249Z,50.62
2023-04-04T05:16:06.309Z,56.25
2023-04-04T05:17:06.248Z,56.25
2023-04-04T05:18:06.230Z,56.25
2023-04-04T05:19:06.380Z,61.88
2023-04-04T05:20:06.233Z,61.88
2023-04-04T05:21:06.209Z,67.50
2023-04-04T05:22:06.162Z,67.50
2023-04-04T05:23:06.253Z,67.50
2023-04-04T05:24:06.164Z,73.12
2023-04-04T05:25:06.141Z,73.12
2023-04-04T05:26:06.118Z,78.75
2023-04-04T05:27:06.315Z,78.75
2023-04-04T05:28:06.152Z,78.75
2023-04-04T05:29:06.107Z,84.38
2023-04-04T05:30:06.154Z,84.38
2023-04-04T05:31:06.091Z,90.00
2023-04-04T05:32:06.213Z,90.00
2023-04-04T05:33:06.069Z,95.62
2023-04-04T05:34:06.055Z,95.62
2023-04-04T05:35:06.194Z,101.25
2023-04-04T05:36:06.042Z,106.88
2023-04-04T05:37:06.072Z,135.00
2023-04-04T05:38:05.998Z,157.50
2023-04-04T05:39:06.006Z,168.75
2023-04-04T05:40:06.047Z,174.38
2023-04-04T05:41:06.068Z,180.00
2023-04-04T05:42:06.019Z,185.62
2023-04-04T05:43:05.984Z,191.25
2023-04-04T05:44:06.001Z,196.88
2023-04-04T05:45:05.955Z,196.88
2023-04-04T05:46:05.980Z,202.50
2023-04-04T05:47:05.926Z,213.75
2023-04-04T05:48:05.985Z,219.38
2023-04-04T05:49:05.929Z,230.62
2023-04-04T05:50:05.933Z,241.88
2023-04-04T05:51:05.918Z,253.12
2023-04-04T05:52:05.857Z,270.00
2023-04-04T05:53:05.958Z,309.38
2023-04-04T05:54:06.063Z,376.88
2023-04-04T05:55:05.831Z,461.25
2023-04-04T05:56:05.848Z,556.88
2023-04-04T05:57:05.807Z,742.50
2023-04-04T05:58:05.804Z,1046.25
2023-04-04T05:59:05.876Z,1209.38
2023-04-04T06:00:05.873Z,967.50
2023-04-04T06:01:05.774Z,703.12
2023-04-04T06:02:05.785Z,618.75
2023-04-04T06:03:05.837Z,556.88
2023-04-04T06:04:05.776Z,489.38
2023-04-04T06:05:05.816Z,483.75
2023-04-04T06:06:05.831Z,478.12
2023-04-04T06:07:05.706Z,478.12
2023-04-04T06:08:05.711Z,472.50
2023-04-04T06:09:08.216Z,466.88
2023-04-04T06:10:05.715Z,489.38
2023-04-04T06:11:05.689Z,511.88
2023-04-04T06:12:05.669Z,528.75
2023-04-04T06:13:05.684Z,528.75
2023-04-04T06:14:05.636Z,551.25
2023-04-04T06:15:05.654Z,545.62
2023-04-04T06:16:05.695Z,523.12
2023-04-04T06:17:10.195Z,540.00
2023-04-04T06:18:05.670Z,562.50
2023-04-04T06:19:05.791Z,562.50
2023-04-04T06:20:05.648Z,556.88
2023-04-04T06:21:05.572Z,573.75
2023-04-04T06:22:05.613Z,585.00
2023-04-04T06:23:05.613Z,562.50
2023-04-04T06:24:05.591Z,540.00
2023-04-04T06:25:05.542Z,556.88
2023-04-04T06:26:05.555Z,495.00
2023-04-04T06:27:05.521Z,562.50
2023-04-04T06:28:05.524Z,573.75
2023-04-04T06:29:05.509Z,573.75
2023-04-04T06:30:05.518Z,585.00
2023-04-04T06:31:05.671Z,551.25
2023-04-04T06:32:05.453Z,613.12
2023-04-04T06:33:05.490Z,540.00
2023-04-04T06:34:05.433Z,444.38
2023-04-04T06:35:05.462Z,675.00
2023-04-04T06:36:05.616Z,697.50
2023-04-04T06:37:05.384Z,720.00
2023-04-04T06:38:05.396Z,731.25
2023-04-04T06:39:05.384Z,787.50
2023-04-04T06:40:05.457Z,838.12
2023-04-04T06:41:05.480Z,911.25
2023-04-04T06:42:05.428Z,911.25
2023-04-04T06:43:05.392Z,961.88
2023-04-04T06:44:05.365Z,990.00
2023-04-04T06:45:05.363Z,1119.38
2023-04-04T06:46:05.309Z,1113.75
2023-04-04T06:47:10.225Z,838.12
2023-04-04T06:48:05.441Z,1001.25
2023-04-04T06:49:05.290Z,1125.00
2023-04-04T06:50:05.309Z,303.75
2023-04-04T06:51:05.270Z,950.62
2023-04-04T06:52:05.386Z,1248.75
2023-04-04T06:53:05.291Z,1220.62
2023-04-04T06:54:05.296Z,1091.25
2023-04-04T06:55:05.466Z,1198.12
2023-04-04T06:56:05.205Z,1260.00
2023-04-04T06:57:05.208Z,1355.62
2023-04-04T06:58:05.201Z,1400.62
2023-04-04T06:59:05.244Z,1400.62
2023-04-04T07:00:05.151Z,1479.38
2023-04-04T07:01:05.261Z,1490.62
2023-04-04T07:02:05.687Z,1530.00
2023-04-04T07:03:05.172Z,1507.50
2023-04-04T07:04:05.272Z,1428.75
2023-04-04T07:05:05.172Z,1445.62
2023-04-04T07:06:05.141Z,1468.12
2023-04-04T07:07:05.069Z,1473.75
2023-04-04T07:08:05.080Z,1496.25
2023-04-04T07:09:07.171Z,1507.50
2023-04-04T07:10:05.062Z,1462.50
2023-04-04T07:11:05.064Z,1473.75
2023-04-04T07:12:05.025Z,1541.25
2023-04-04T07:13:05.022Z,1473.75
2023-04-04T07:14:05.020Z,1456.88
2023-04-04T07:15:05.031Z,1558.12
2023-04-04T07:16:05.058Z,1496.25
2023-04-04T07:17:13.734Z,1462.50
2023-04-04T07:18:06.002Z,1513.12
2023-04-04T07:19:04.952Z,1552.50
2023-04-04T07:20:05.065Z,1575.00
2023-04-04T07:21:04.939Z,1490.62
2023-04-04T07:22:04.924Z,1440.00
2023-04-04T07:23:04.976Z,1456.88
2023-04-04T07:24:04.939Z,1473.75
2023-04-04T07:25:05.301Z,1485.00
2023-04-04T07:26:04.880Z,1501.88
2023-04-04T07:27:04.878Z,1530.00
2023-04-04T07:28:12.462Z,1575.00
2023-04-04T07:29:05.840Z,1569.38
2023-04-04T07:30:04.932Z,1563.75
2023-04-04T07:31:04.831Z,1546.88
2023-04-04T07:32:04.893Z,1558.12
2023-04-04T07:33:04.915Z,1597.50
2023-04-04T07:34:04.808Z,1608.75
2023-04-04T07:35:04.785Z,1591.88
2023-04-04T07:36:04.869Z,1586.25
2023-04-04T07:37:04.875Z,1676.25
2023-04-04T07:38:04.746Z,1732.50
2023-04-04T07:39:04.737Z,1788.75
2023-04-04T07:40:04.737Z,1766.25
2023-04-04T07:41:04.700Z,1653.75
2023-04-04T07:42:04.691Z,1693.12
2023-04-04T07:43:04.735Z,1839.38
2023-04-04T07:44:04.686Z,1957.50
2023-04-04T07:45:04.711Z,1850.62
2023-04-04T07:46:04.705Z,1856.25
2023-04-04T07:47:09.672Z,1873.12
2023-04-04T07:48:05.752Z,1771.88
2023-04-04T07:49:04.641Z,1845.00
2023-04-04T07:50:04.634Z,1957.50
2023-04-04T07:51:04.599Z,1878.75
2023-04-04T07:52:04.655Z,1957.50
2023-04-04T07:53:04.604Z,1951.88
2023-04-04T07:54:04.573Z,1901.25
2023-04-04T07:55:04.578Z,1856.25
2023-04-04T07:56:04.579Z,1890.00
2023-04-04T07:57:04.556Z,1963.12
2023-04-04T07:58:04.576Z,1164.38
2023-04-04T07:59:04.563Z,1974.38
2023-04-04T08:00:04.537Z,2064.38
2023-04-04T08:01:04.481Z,1985.62
2023-04-04T08:02:04.565Z,669.38
2023-04-04T08:03:04.555Z,2086.88
2023-04-04T08:04:04.550Z,2030.62
2023-04-04T08:05:04.465Z,2081.25
2023-04-04T08:06:04.435Z,2070.00
2023-04-04T08:07:04.486Z,2064.38
2023-04-04T08:08:04.410Z,2081.25
2023-04-04T08:09:04.477Z,2058.75
2023-04-04T08:10:04.402Z,2086.88
2023-04-04T08:11:04.427Z,2075.62
2023-04-04T08:12:04.386Z,2075.62
2023-04-04T08:13:04.368Z,2126.25
2023-04-04T08:14:04.338Z,2070.00
2023-04-04T08:15:04.352Z,2137.50
2023-04-04T08:16:04.400Z,2165.62
2023-04-04T08:17:04.352Z,2295.00
2023-04-04T08:18:04.357Z,2401.88
2023-04-04T08:19:04.298Z,624.38
2023-04-04T08:20:04.295Z,2345.62
2023-04-04T08:21:04.288Z,1766.25
2023-04-04T08:22:11.918Z,866.25
2023-04-04T08:23:04.280Z,607.50
2023-04-04T08:24:04.268Z,1170.00
2023-04-04T08:25:04.236Z,736.88
2023-04-04T08:26:04.240Z,669.38
2023-04-04T08:27:05.883Z,1046.25
2023-04-04T08:28:04.283Z,945.00
2023-04-04T08:29:04.177Z,1456.88
2023-04-04T08:30:04.221Z,2514.38
2023-04-04T08:31:04.280Z,641.25
2023-04-04T08:32:04.150Z,2542.50
2023-04-04T08:33:06.226Z,2283.75
2023-04-04T08:34:04.170Z,2345.62
2023-04-04T08:35:04.119Z,2396.25
2023-04-04T08:36:04.217Z,1203.75
2023-04-04T08:37:04.086Z,669.38
2023-04-04T08:38:04.074Z,2463.75
2023-04-04T08:39:04.122Z,2503.12
2023-04-04T08:40:04.062Z,2480.62
2023-04-04T08:41:04.065Z,2581.88
2023-04-04T08:42:04.134Z,2581.88
2023-04-04T08:43:04.038Z,2475.00
2023-04-04T08:44:04.075Z,2441.25
2023-04-04T08:45:04.033Z,2368.12
2023-04-04T08:46:04.019Z,2390.62
2023-04-04T08:47:04.399Z,2503.12
2023-04-04T08:48:04.112Z,2508.75
2023-04-04T08:49:04.012Z,2508.75
2023-04-04T08:50:04.007Z,2413.12
2023-04-04T08:51:03.963Z,2362.50
2023-04-04T08:52:03.952Z,2272.50
2023-04-04T08:53:03.925Z,2244.38
2023-04-04T08:54:03.925Z,2244.38
2023-04-04T08:55:03.896Z,2368.12
2023-04-04T08:56:03.887Z,2272.50
2023-04-04T08:57:03.886Z,2373.75
2023-04-04T08:58:03.874Z,2295.00
2023-04-04T08:59:04.104Z,2272.50
2023-04-04T09:00:04.107Z,2317.50
2023-04-04T09:01:03.892Z,2345.62
2023-04-04T09:02:03.844Z,2413.12
2023-04-04T09:03:03.896Z,2413.12
2023-04-04T09:04:03.883Z,2407.50
2023-04-04T09:05:06.983Z,2503.12
2023-04-04T09:06:03.818Z,2525.62
2023-04-04T09:07:03.766Z,2655.00
2023-04-04T09:08:03.778Z,1417.50
2023-04-04T09:09:03.760Z,2953.12
2023-04-04T09:10:03.742Z,3060.00
2023-04-04T09:11:04.756Z,2964.38
2023-04-04T09:12:03.735Z,2790.00
2023-04-04T09:13:14.533Z,2750.62
2023-04-04T09:14:04.699Z,2801.25
2023-04-04T09:15:03.710Z,2767.50
2023-04-04T09:16:03.829Z,2643.75
2023-04-04T09:17:03.740Z,2778.75
2023-04-04T09:18:03.696Z,2846.25
2023-04-04T09:19:03.736Z,3026.25
2023-04-04T09:20:03.635Z,2722.50
2023-04-04T09:21:03.654Z,2739.38
2023-04-04T09:22:03.611Z,2958.75
2023-04-04T09:23:03.663Z,2773.12
2023-04-04T09:24:04.258Z,2626.88
2023-04-04T09:25:03.576Z,2649.38
2023-04-04T09:26:04.853Z,3009.38
2023-04-04T09:27:03.561Z,3262.50
2023-04-04T09:28:03.547Z,3110.62
2023-04-04T09:29:03.588Z,2829.38
2023-04-04T09:30:05.359Z,2818.12
2023-04-04T09:31:03.523Z,2829.38
2023-04-04T09:32:03.602Z,2930.62
2023-04-04T09:33:03.534Z,3065.62
2023-04-04T09:34:03.512Z,2941.88
2023-04-04T09:35:03.471Z,2953.12
2023-04-04T09:36:03.545Z,2919.38
2023-04-04T09:37:03.477Z,2857.50
2023-04-04T09:38:03.718Z,3256.88
2023-04-04T09:39:03.500Z,3223.12
2023-04-04T09:40:03.466Z,3031.88
2023-04-04T09:41:03.406Z,3071.25
2023-04-04T09:42:03.390Z,2947.50
2023-04-04T09:43:03.388Z,3150.00
2023-04-04T09:44:03.409Z,3324.38
2023-04-04T09:45:03.367Z,3262.50
2023-04-04T09:46:03.375Z,3318.75
2023-04-04T09:47:03.346Z,3678.75
2023-04-04T09:48:03.362Z,4573.12
2023-04-04T09:49:03.350Z,4539.38
2023-04-04T09:50:03.306Z,4719.38
2023-04-04T09:51:03.311Z,4618.12
2023-04-04T09:52:03.285Z,3853.12
2023-04-04T09:53:03.322Z,4038.75
2023-04-04T09:54:03.303Z,3988.12
2023-04-04T09:55:03.273Z,4151.25
2023-04-04T09:56:03.256Z,4899.38
2023-04-04T09:57:03.271Z,4201.88
2023-04-04T09:58:03.255Z,4117.50
2023-04-04T09:59:05.106Z,1895.62
2023-04-04T10:00:03.195Z,1215.00
2023-04-04T10:01:03.209Z,3436.88
2023-04-04T10:02:03.188Z,3425.62
2023-04-04T10:03:03.270Z,3521.25
2023-04-04T10:04:03.291Z,3251.25
2023-04-04T10:05:06.529Z,3588.75
2023-04-04T10:06:04.924Z,3251.25
2023-04-04T10:07:03.159Z,2992.50
2023-04-04T10:08:03.127Z,3150.00
2023-04-04T10:09:03.124Z,2801.25
2023-04-04T10:10:03.101Z,2604.38
2023-04-04T10:11:10.371Z,2773.12
2023-04-04T10:12:04.097Z,2790.00
2023-04-04T10:13:03.064Z,2756.25
2023-04-04T10:14:03.871Z,3211.88
2023-04-04T10:15:03.066Z,3082.50
2023-04-04T10:16:03.077Z,3195.00
2023-04-04T10:17:09.206Z,3150.00
2023-04-04T10:18:03.197Z,3076.88
2023-04-04T10:19:03.169Z,3065.62
2023-04-04T10:20:03.034Z,3076.88
2023-04-04T10:21:14.642Z,3048.75
2023-04-04T10:22:04.029Z,3150.00
2023-04-04T10:23:02.968Z,3183.75
2023-04-04T10:24:02.951Z,1209.38
2023-04-04T10:25:02.979Z,2424.38
2023-04-04T10:26:02.935Z,2986.88
2023-04-04T10:27:02.927Z,2947.50
2023-04-04T10:28:02.995Z,2919.38
2023-04-04T10:29:02.921Z,2986.88
2023-04-04T10:30:02.985Z,2981.25
2023-04-04T10:31:06.682Z,2829.38
2023-04-04T10:32:02.926Z,2925.00
2023-04-04T10:33:02.918Z,3065.62
2023-04-04T10:34:02.858Z,2992.50
2023-04-04T10:35:02.840Z,3082.50
2023-04-04T10:36:02.990Z,3121.88
2023-04-04T10:37:02.811Z,3060.00
2023-04-04T10:38:02.836Z,3307.50
2023-04-04T10:39:02.849Z,3414.38
2023-04-04T10:40:02.832Z,3256.88
2023-04-04T10:41:02.772Z,3403.12
2023-04-04T10:42:02.800Z,3616.88
2023-04-04T10:43:02.753Z,3819.38
2023-04-04T10:44:02.743Z,3532.50
2023-04-04T10:45:16.980Z,635.62
2023-04-04T10:46:03.714Z,680.62
2023-04-04T10:47:07.325Z,3054.38
2023-04-04T10:48:02.759Z,2941.88
2023-04-04T10:49:02.689Z,3296.25
2023-04-04T10:50:02.697Z,3549.38
2023-04-04T10:51:02.717Z,3268.12
2023-04-04T10:52:02.679Z,3009.38
2023-04-04T10:53:02.701Z,3071.25
2023-04-04T10:54:02.632Z,3206.25
2023-04-04T10:55:02.622Z,3093.75
2023-04-04T10:56:02.634Z,3195.00
2023-04-04T10:57:02.597Z,3487.50
2023-04-04T10:58:02.591Z,3015.00
2023-04-04T10:59:02.854Z,2868.75
2023-04-04T11:00:02.618Z,2863.12
2023-04-04T11:01:02.606Z,2840.62
2023-04-04T11:02:02.549Z,2660.62
2023-04-04T11:03:02.744Z,2553.75
2023-04-04T11:04:02.614Z,2553.75
2023-04-04T11:05:02.523Z,2430.00
2023-04-04T11:06:02.506Z,2677.50
2023-04-04T11:07:02.492Z,2666.25
2023-04-04T11:08:07.500Z,2688.75
2023-04-04T11:09:03.503Z,2716.88
2023-04-04T11:10:02.500Z,2536.88
2023-04-04T11:11:05.159Z,3043.12
2023-04-04T11:12:03.431Z,787.50
2023-04-04T11:13:11.722Z,2970.00
2023-04-04T11:14:03.423Z,1293.75
2023-04-04T11:15:02.467Z,2441.25
2023-04-04T11:16:02.479Z,1541.25
2023-04-04T11:17:02.398Z,3279.38
2023-04-04T11:18:05.963Z,3150.00
2023-04-04T11:19:03.375Z,3105.00
2023-04-04T11:20:02.364Z,3234.38
2023-04-04T11:21:02.389Z,3301.88
2023-04-04T11:22:02.337Z,3481.88
2023-04-04T11:23:02.332Z,3133.12
2023-04-04T11:24:02.355Z,1170.00
2023-04-04T11:25:02.309Z,2975.62
2023-04-04T11:26:02.296Z,1344.38
2023-04-04T11:27:02.340Z,2795.62
2023-04-04T11:28:02.310Z,2244.38
2023-04-04T11:29:02.301Z,1361.25
2023-04-04T11:30:02.254Z,1704.38
2023-04-04T11:31:02.264Z,2964.38
2023-04-04T11:32:02.285Z,3110.62
2023-04-04T11:33:07.314Z,3121.88
2023-04-04T11:34:03.234Z,3121.88
2023-04-04T11:35:02.216Z,2947.50
2023-04-04T11:36:02.283Z,3043.12
2023-04-04T11:37:02.198Z,1726.88
2023-04-04T11:38:02.167Z,871.88
2023-04-04T11:39:02.239Z,871.88
2023-04-04T11:40:02.352Z,2930.62
2023-04-04T11:41:02.147Z,2885.62
2023-04-04T11:42:02.152Z,3037.50
2023-04-04T11:43:02.108Z,1372.50
2023-04-04T11:44:02.096Z,1170.00
2023-04-04T11:45:02.258Z,2936.25
2023-04-04T11:46:02.122Z,2739.38
2023-04-04T11:47:02.072Z,2649.38
2023-04-04T11:48:02.838Z,2745.00
2023-04-04T11:49:02.046Z,3105.00
2023-04-04T11:50:02.048Z,3245.62
2023-04-04T11:51:02.067Z,3048.75
2023-04-04T11:52:02.019Z,3048.75
2023-04-04T11:53:02.200Z,2998.12
2023-04-04T11:54:02.006Z,2885.62
2023-04-04T11:55:01.973Z,2981.25
2023-04-04T11:56:01.988Z,2868.75
2023-04-04T11:57:02.017Z,2728.12
2023-04-04T11:58:01.948Z,2683.12
2023-04-04T11:59:10.991Z,2711.25
2023-04-04T12:00:02.950Z,2756.25
2023-04-04T12:01:01.924Z,2812.50
2023-04-04T12:02:01.946Z,1839.38
2023-04-04T12:03:02.100Z,810.00
2023-04-04T12:04:01.901Z,866.25
2023-04-04T12:05:02.023Z,3279.38
2023-04-04T12:06:01.891Z,2919.38
2023-04-04T12:07:01.873Z,2683.12
2023-04-04T12:08:01.874Z,2626.88
2023-04-04T12:09:01.856Z,2671.88
2023-04-04T12:10:01.826Z,2947.50
2023-04-04T12:11:01.812Z,3048.75
2023-04-04T12:12:01.823Z,2638.12
2023-04-04T12:13:01.828Z,2604.38
2023-04-04T12:14:01.851Z,2581.88
2023-04-04T12:15:14.495Z,2857.50
2023-04-04T12:16:02.779Z,2863.12
2023-04-04T12:17:01.763Z,2610.00
2023-04-04T12:18:01.772Z,2773.12
2023-04-04T12:19:01.776Z,2936.25
2023-04-04T12:20:01.798Z,3200.62
2023-04-04T12:21:01.739Z,2053.12
2023-04-04T12:22:03.009Z,832.50
2023-04-04T12:23:01.761Z,1366.88
2023-04-04T12:24:01.678Z,2964.38
2023-04-04T12:25:01.668Z,2733.75
2023-04-04T12:26:01.668Z,2581.88
2023-04-04T12:27:01.706Z,2475.00
2023-04-04T12:28:01.672Z,2587.50
2023-04-04T12:29:01.707Z,1316.25
2023-04-04T12:30:01.647Z,2621.25
2023-04-04T12:31:01.671Z,973.12
2023-04-04T12:32:02.371Z,1496.25
2023-04-04T12:33:01.705Z,2829.38
2023-04-04T12:34:01.639Z,2671.88
2023-04-04T12:35:01.608Z,2565.00
2023-04-04T12:36:01.547Z,2778.75
2023-04-04T12:37:01.615Z,3026.25